createdAt,value
2022-11-29T00:02:24.323Z,4.80
2022-11-29T00:07:26.135Z,4.79
2022-11-29T00:12:27.797Z,4.81
2022-11-29T00:17:29.443Z,4.83
2022-11-29T00:22:31.060Z,4.84
2022-11-29T00:27:32.881Z,4.84
2022-11-29T00:32:35.675Z,4.85
2022-11-29T00:37:37.503Z,4.84
2022-11-29T00:42:39.143Z,4.86
2022-11-29T00:47:40.842Z,4.88
2022-11-29T00:52:42.491Z,4.91
2022-11-29T00:57:44.436Z,4.92
2022-11-29T01:02:46.232Z,4.93
2022-11-29T01:07:47.948Z,4.94
2022-11-29T01:12:49.803Z,4.94
2022-11-29T01:17:51.504Z,4.94
2022-11-29T01:22:53.257Z,4.94
2022-11-29T01:27:54.892Z,4.94
2022-11-29T01:32:56.551Z,4.95
2022-11-29T01:37:58.251Z,4.95
2022-11-29T01:42:59.947Z,4.94
2022-11-29T01:48:01.635Z,4.89
2022-11-29T01:53:03.558Z,4.86
2022-11-29T01:58:06.763Z,4.81
2022-11-29T02:03:11.452Z,4.74
2022-11-29T02:08:14.782Z,4.70
2022-11-29T02:13:26.103Z,4.67
2022-11-29T02:18:49.646Z,4.61
2022-11-29T02:24:20.633Z,4.58
2022-11-29T02:29:39.394Z,4.52
2022-11-29T02:34:59.178Z,4.46
2022-11-29T02:40:34.626Z,4.40
2022-11-29T02:45:39.995Z,4.37
2022-11-29T02:50:50.813Z,4.35
2022-11-29T02:56:27.429Z,4.31
2022-11-29T03:01:42.178Z,4.26
2022-11-29T03:06:52.762Z,4.25
2022-11-29T03:12:16.589Z,4.22
2022-11-29T03:17:31.613Z,4.18
2022-11-29T03:22:55.422Z,4.19
2022-11-29T03:28:13.875Z,4.16
2022-11-29T03:33:21.508Z,4.13
2022-11-29T03:38:32.723Z,4.12
2022-11-29T03:44:07.305Z,4.11
2022-11-29T03:49:22.952Z,4.10
2022-11-29T03:54:57.349Z,4.09
2022-11-29T04:00:07.390Z,4.08
2022-11-29T04:05:36.603Z,4.06
2022-11-29T04:11:08.990Z,4.05
2022-11-29T04:16:19.369Z,4.04
2022-11-29T04:21:26.971Z,4.03
2022-11-29T04:26:58.898Z,4.01
2022-11-29T04:32:11.600Z,3.99
2022-11-29T04:37:16.161Z,4.02
2022-11-29T04:42:34.429Z,4.03
2022-11-29T04:47:39.207Z,4.02
2022-11-29T04:52:59.138Z,4.04
2022-11-29T04:58:16.136Z,4.03
2022-11-29T05:03:26.291Z,4.06
2022-11-29T05:09:18.106Z,4.07
2022-11-29T05:14:36.389Z,4.06
2022-11-29T05:20:01.656Z,4.06
2022-11-29T05:25:14.493Z,4.07
2022-11-29T05:30:19.977Z,4.10
2022-11-29T05:35:43.335Z,4.11
2022-11-29T05:41:04.921Z,4.15
2022-11-29T05:46:19.390Z,4.13
2022-11-29T05:52:19.002Z,4.11
2022-11-29T05:57:35.662Z,4.12
2022-11-29T06:02:59.411Z,4.16
2022-11-29T06:08:04.387Z,4.18
2022-11-29T06:13:22.011Z,4.21
2022-11-29T06:19:08.631Z,4.24
2022-11-29T06:24:26.254Z,4.27
2022-11-29T06:29:32.981Z,4.30
2022-11-29T06:34:58.986Z,4.32
2022-11-29T06:40:00.976Z,4.29
2022-11-29T06:45:03.632Z,4.28
2022-11-29T06:50:37.756Z,4.28
2022-11-29T06:56:03.225Z,4.28
2022-11-29T07:01:20.398Z,4.25
2022-11-29T07:06:27.432Z,4.23
2022-11-29T07:11:29.199Z,4.23
2022-11-29T07:16:40.358Z,4.24
2022-11-29T07:22:00.600Z,4.24
2022-11-29T07:27:07.610Z,4.21
2022-11-29T07:32:22.984Z,4.18
2022-11-29T07:37:52.549Z,4.18
2022-11-29T07:43:18.130Z,4.18
2022-11-29T07:48:19.803Z,4.19
2022-11-29T07:53:22.778Z,4.20
2022-11-29T07:58:24.478Z,4.27
2022-11-29T08:03:26.173Z,4.34
2022-11-29T08:08:27.823Z,4.35
2022-11-29T08:13:29.434Z,4.40
2022-11-29T08:18:31.074Z,4.39
2022-11-29T08:23:32.882Z,4.44
2022-11-29T08:28:34.508Z,4.47
2022-11-29T08:33:38.113Z,4.52
2022-11-29T08:38:39.862Z,4.51
2022-11-29T08:43:41.926Z,4.56
2022-11-29T08:48:43.598Z,4.53
2022-11-29T08:53:46.621Z,4.54
2022-11-29T08:58:48.338Z,4.55
2022-11-29T09:04:07.128Z,4.57
2022-11-29T09:09:08.864Z,4.58
2022-11-29T09:14:15.129Z,4.58
2022-11-29T09:19:16.874Z,4.60
2022-11-29T09:24:19.643Z,4.62
2022-11-29T09:29:21.411Z,4.64
2022-11-29T09:34:23.152Z,4.65
2022-11-29T09:39:24.794Z,4.71
2022-11-29T09:44:47.673Z,4.76
2022-11-29T09:50:12.781Z,4.82
2022-11-29T09:55:33.226Z,4.85
2022-11-29T10:00:38.652Z,4.90
2022-11-29T10:05:50.043Z,4.89
2022-11-29T10:10:58.718Z,4.97
2022-11-29T10:16:11.651Z,4.99
2022-11-29T10:21:18.023Z,5.05
2022-11-29T10:26:20.807Z,5.13
2022-11-29T10:31:32.255Z,5.17
2022-11-29T10:36:46.856Z,5.19
2022-11-29T10:41:55.995Z,5.28
2022-11-29T10:47:00.318Z,5.32
2022-11-29T10:52:02.028Z,5.37
2022-11-29T10:57:09.444Z,5.39
2022-11-29T11:02:19.086Z,5.35
2022-11-29T11:07:30.945Z,5.37
2022-11-29T11:12:34.368Z,5.47
2022-11-29T11:17:37.715Z,5.46
2022-11-29T11:22:40.633Z,5.47
2022-11-29T11:27:42.347Z,5.48
2022-11-29T11:33:22.340Z,5.43
2022-11-29T11:38:24.440Z,5.48
2022-11-29T11:43:26.219Z,5.45
2022-11-29T11:48:28.306Z,5.51
2022-11-29T11:53:35.794Z,5.54
2022-11-29T11:58:40.033Z,5.55
2022-11-29T12:04:10.420Z,5.59
2022-11-29T12:09:45.138Z,5.57
2022-11-29T12:14:58.965Z,5.51
2022-11-29T12:20:31.407Z,5.52
2022-11-29T12:25:39.599Z,5.52
2022-11-29T12:30:59.115Z,5.51
2022-11-29T12:36:16.140Z,5.51
2022-11-29T12:41:53.987Z,5.46
2022-11-29T12:52:52.351Z,5.42
2022-11-29T12:58:18.597Z,5.43
2022-11-29T13:03:31.048Z,5.47
2022-11-29T13:08:56.559Z,5.50
2022-11-29T13:14:40.939Z,5.53
2022-11-29T13:19:41.676Z,5.57
2022-11-29T13:24:47.811Z,5.57
2022-11-29T13:29:50.172Z,5.59
2022-11-29T13:34:52.381Z,5.54
2022-11-29T13:40:06.107Z,5.50
2022-11-29T13:45:32.886Z,5.44
2022-11-29T13:50:43.618Z,5.35
2022-11-29T13:56:02.740Z,5.35
2022-11-29T14:01:09.946Z,5.31
2022-11-29T14:06:21.709Z,5.26
2022-11-29T14:11:42.110Z,5.23
2022-11-29T14:16:43.737Z,5.21
2022-11-29T14:22:05.484Z,5.19
2022-11-29T14:27:07.456Z,5.17
2022-11-29T14:32:20.637Z,5.17
2022-11-29T14:37:34.367Z,5.14
2022-11-29T14:42:46.223Z,5.13
2022-11-29T14:47:49.087Z,5.11
2022-11-29T14:52:51.662Z,5.05
2022-11-29T14:58:03.688Z,5.05
2022-11-29T15:03:17.304Z,5.02
2022-11-29T15:08:35.891Z,5.01
2022-11-29T15:13:40.163Z,4.98
2022-11-29T15:19:03.058Z,4.95
2022-11-29T15:24:16.251Z,4.92
2022-11-29T15:29:21.537Z,4.89
2022-11-29T15:34:31.437Z,4.89
2022-11-29T15:39:35.489Z,4.85
2022-11-29T15:44:37.211Z,4.83
2022-11-29T15:49:38.858Z,4.81
2022-11-29T15:54:44.305Z,4.80
2022-11-29T15:59:50.299Z,4.78
2022-11-29T16:04:54.541Z,4.77
2022-11-29T16:10:06.084Z,4.74
2022-11-29T16:15:31.001Z,4.72
2022-11-29T16:20:32.746Z,4.72
2022-11-29T16:25:37.536Z,4.72
2022-11-29T16:30:41.977Z,4.71
2022-11-29T16:35:43.665Z,4.68
2022-11-29T16:41:00.808Z,4.72
2022-11-29T16:46:26.343Z,4.70
2022-11-29T16:51:39.874Z,4.67
2022-11-29T16:56:41.676Z,4.67
2022-11-29T17:01:43.387Z,4.66
2022-11-29T17:06:45.111Z,4.65
2022-11-29T17:11:46.940Z,4.65
2022-11-29T17:16:49.782Z,4.62
2022-11-29T17:21:52.674Z,4.62
2022-11-29T17:26:54.298Z,4.61
2022-11-29T17:31:56.031Z,4.62
2022-11-29T17:36:57.720Z,4.59
2022-11-29T17:41:59.427Z,4.59
2022-11-29T17:47:01.450Z,4.60
2022-11-29T17:52:03.377Z,4.59
2022-11-29T17:57:05.117Z,4.60
2022-11-29T18:02:06.896Z,4.60
2022-11-29T18:07:08.734Z,4.60
2022-11-29T18:12:10.492Z,4.62
2022-11-29T18:17:12.303Z,4.59
2022-11-29T18:22:13.979Z,4.60
2022-11-29T18:27:15.754Z,4.62
2022-11-29T18:32:17.387Z,4.61
2022-11-29T18:37:38.951Z,4.61
2022-11-29T18:42:40.802Z,4.61
2022-11-29T18:47:42.756Z,4.60
2022-11-29T18:52:44.483Z,4.61
2022-11-29T18:57:49.537Z,4.62
2022-11-29T19:02:51.287Z,4.61
2022-11-29T19:07:53.002Z,4.61
2022-11-29T19:12:54.937Z,4.61
2022-11-29T19:17:56.723Z,4.60
2022-11-29T19:23:00.665Z,4.61
2022-11-29T19:28:02.580Z,4.60
2022-11-29T19:33:04.611Z,4.61
2022-11-29T19:38:06.338Z,4.61
2022-11-29T19:43:07.943Z,4.60
2022-11-29T19:48:09.651Z,4.60
2022-11-29T19:53:11.349Z,4.63
2022-11-29T19:58:13.029Z,4.61
2022-11-29T20:03:14.779Z,4.58
2022-11-29T20:08:21.147Z,4.56
2022-11-29T20:13:23.172Z,4.54
2022-11-29T20:18:30.269Z,4.51
2022-11-29T20:23:31.993Z,4.52
2022-11-29T20:28:36.759Z,4.50
2022-11-29T20:33:40.342Z,4.48
2022-11-29T20:38:46.047Z,4.49
2022-11-29T20:43:55.865Z,4.44
2022-11-29T20:49:01.785Z,4.42
2022-11-29T20:54:10.618Z,4.38
2022-11-29T20:59:12.379Z,4.35
2022-11-29T21:04:16.710Z,4.28
2022-11-29T21:09:20.525Z,4.17
2022-11-29T21:14:22.727Z,4.08
2022-11-29T21:19:25.719Z,4.01
2022-11-29T21:24:43.169Z,3.93
2022-11-29T21:29:45.243Z,3.90
2022-11-29T21:34:47.157Z,3.85
2022-11-29T21:39:51.471Z,3.82
2022-11-29T21:44:53.095Z,3.77
2022-11-29T21:49:56.706Z,3.76
2022-11-29T21:54:58.369Z,3.72
2022-11-29T22:00:00.088Z,3.72
2022-11-29T22:05:01.822Z,3.73
2022-11-29T22:10:09.918Z,3.73
2022-11-29T22:15:19.081Z,3.74
2022-11-29T22:20:23.407Z,3.74
2022-11-29T22:25:25.121Z,3.76
2022-11-29T22:30:28.385Z,3.77
2022-11-29T22:35:30.051Z,3.82
2022-11-29T22:40:31.816Z,3.81
2022-11-29T22:45:33.556Z,3.83
2022-11-29T22:50:35.639Z,3.84
2022-11-29T22:55:37.284Z,3.87
2022-11-29T23:00:44.005Z,3.85
2022-11-29T23:05:45.710Z,3.85
2022-11-29T23:10:57.387Z,3.83
2022-11-29T23:15:58.981Z,3.82
2022-11-29T23:21:04.744Z,3.80
2022-11-29T23:26:07.712Z,3.76
2022-11-29T23:31:09.327Z,3.77
2022-11-29T23:36:12.246Z,3.78
2022-11-29T23:41:14.045Z,3.76
2022-11-29T23:46:21.546Z,3.75
2022-11-29T23:51:23.209Z,3.76
2022-11-29T23:56:24.856Z,3.77
